Terminal Aerodrome Forecast
Issued by NWS

Home | Current Version | Previous Version | Text Only | Print | Product List | Glossary On
Versions: 1 2 3 4 5 6 7 8 9 10 11 12 13 14
000
FTUS41 KCAR 210927 AAA
TAFFVE
TAF AMD
KFVE 210927Z 2109/2206 13016G28KT 4SM -RA OVC006
     FM212300 13010KT 5SM -RA OVC008
     FM220300 17004KT P6SM BKN040=

USA.gov is the U.S. government's official web portal to all federal, state and local government web resources and services.